Millboro, Virginia
Current Conditions -  °F | °C
As of 9:55 PM on Friday 19 Dec 2014 (Local Time) from KHSP Reporting Station
Clear Clear  
Wind Chill: 10°   Ceiling: Unl
Heat Index: 21°   Visibility: 10mi
Dew Point: 21°   Wind: 10mph
Humidity: 100%   Direction: 310°NW
Pressure: 30.07"   Gusts: NA
Location:  37.98°N, 79.6°W
Report Text: KHSP 200255Z AUTO 31009KT 10SM CLR M06/M06 A3007 RMK AO2 T10621062
Loading
Personal Weather Stations






























Interactive Weather Map New forecast layout! Learn more

10-Day Weather Forecast

Advertisements
Track Severe Weather on mobile